sensor_id;sensor_type;location;lat;lon;timestamp;P1;durP1;ratioP1;P2;durP2;ratioP2
25962;SDS011;13760;52.588;13.406;2023-04-06T00:00:08;12.05;;;5.93;;
25962;SDS011;13760;52.588;13.406;2023-04-06T00:02:35;10.77;;;6.57;;
25962;SDS011;13760;52.588;13.406;2023-04-06T00:05:01;11.52;;;6.40;;
25962;SDS011;13760;52.588;13.406;2023-04-06T00:07:27;9.68;;;6.10;;
25962;SDS011;13760;52.588;13.406;2023-04-06T00:09:54;16.83;;;7.93;;
25962;SDS011;13760;52.588;13.406;2023-04-06T00:12:20;9.15;;;5.93;;
25962;SDS011;13760;52.588;13.406;2023-04-06T00:14:45;11.43;;;6.00;;
25962;SDS011;13760;52.588;13.406;2023-04-06T00:17:11;12.55;;;6.75;;
25962;SDS011;13760;52.588;13.406;2023-04-06T00:19:36;11.23;;;6.38;;
25962;SDS011;13760;52.588;13.406;2023-04-06T00:22:02;12.95;;;6.72;;
25962;SDS011;13760;52.588;13.406;2023-04-06T00:24:27;9.50;;;6.18;;
25962;SDS011;13760;52.588;13.406;2023-04-06T00:26:53;12.20;;;5.57;;
25962;SDS011;13760;52.588;13.406;2023-04-06T00:29:19;9.40;;;5.78;;
25962;SDS011;13760;52.588;13.406;2023-04-06T00:31:44;13.48;;;6.32;;
25962;SDS011;13760;52.588;13.406;2023-04-06T00:34:10;8.98;;;5.95;;
25962;SDS011;13760;52.588;13.406;2023-04-06T00:36:35;13.00;;;6.30;;
25962;SDS011;13760;52.588;13.406;2023-04-06T00:39:01;11.07;;;6.65;;
25962;SDS011;13760;52.588;13.406;2023-04-06T00:41:27;11.25;;;5.47;;
25962;SDS011;13760;52.588;13.406;2023-04-06T00:43:53;10.60;;;5.85;;
25962;SDS011;13760;52.588;13.406;2023-04-06T00:46:19;7.93;;;5.57;;
25962;SDS011;13760;52.588;13.406;2023-04-06T00:48:45;13.73;;;5.80;;
25962;SDS011;13760;52.588;13.406;2023-04-06T00:51:10;11.25;;;6.00;;
25962;SDS011;13760;52.588;13.406;2023-04-06T00:53:36;9.18;;;5.82;;
25962;SDS011;13760;52.588;13.406;2023-04-06T00:56:01;9.75;;;5.43;;
25962;SDS011;13760;52.588;13.406;2023-04-06T00:58:27;12.93;;;5.95;;
25962;SDS011;13760;52.588;13.406;2023-04-06T01:00:53;10.20;;;5.82;;
25962;SDS011;13760;52.588;13.406;2023-04-06T01:03:18;9.77;;;5.47;;
25962;SDS011;13760;52.588;13.406;2023-04-06T01:05:44;14.95;;;5.75;;
25962;SDS011;13760;52.588;13.406;2023-04-06T01:08:10;12.40;;;5.68;;
25962;SDS011;13760;52.588;13.406;2023-04-06T01:10:36;10.70;;;5.90;;
25962;SDS011;13760;52.588;13.406;2023-04-06T01:13:01;10.52;;;5.68;;
25962;SDS011;13760;52.588;13.406;2023-04-06T01:15:27;10.32;;;5.57;;
25962;SDS011;13760;52.588;13.406;2023-04-06T01:17:54;11.18;;;5.75;;
25962;SDS011;13760;52.588;13.406;2023-04-06T01:20:20;9.93;;;5.07;;
25962;SDS011;13760;52.588;13.406;2023-04-06T01:22:45;10.32;;;5.97;;
25962;SDS011;13760;52.588;13.406;2023-04-06T01:25:11;7.97;;;5.05;;
25962;SDS011;13760;52.588;13.406;2023-04-06T01:27:36;9.57;;;5.40;;
25962;SDS011;13760;52.588;13.406;2023-04-06T01:30:02;12.23;;;5.45;;
25962;SDS011;13760;52.588;13.406;2023-04-06T01:32:28;9.82;;;5.95;;
25962;SDS011;13760;52.588;13.406;2023-04-06T01:34:53;9.38;;;5.40;;
25962;SDS011;13760;52.588;13.406;2023-04-06T01:37:19;9.55;;;5.93;;
25962;SDS011;13760;52.588;13.406;2023-04-06T01:39:45;9.70;;;6.15;;
25962;SDS011;13760;52.588;13.406;2023-04-06T01:42:11;14.20;;;6.05;;
25962;SDS011;13760;52.588;13.406;2023-04-06T01:44:36;10.82;;;5.40;;
25962;SDS011;13760;52.588;13.406;2023-04-06T01:47:04;11.77;;;5.80;;
25962;SDS011;13760;52.588;13.406;2023-04-06T01:49:30;8.93;;;5.18;;
25962;SDS011;13760;52.588;13.406;2023-04-06T01:51:56;11.88;;;6.13;;
25962;SDS011;13760;52.588;13.406;2023-04-06T01:54:21;7.93;;;5.57;;
25962;SDS011;13760;52.588;13.406;2023-04-06T01:56:47;7.90;;;5.28;;
25962;SDS011;13760;52.588;13.406;2023-04-06T01:59:15;8.40;;;5.07;;
25962;SDS011;13760;52.588;13.406;2023-04-06T02:01:40;9.45;;;5.70;;
25962;SDS011;13760;52.588;13.406;2023-04-06T02:04:06;7.82;;;5.20;;
25962;SDS011;13760;52.588;13.406;2023-04-06T02:06:31;8.88;;;5.53;;
25962;SDS011;13760;52.588;13.406;2023-04-06T02:08:57;8.55;;;5.35;;
25962;SDS011;13760;52.588;13.406;2023-04-06T02:11:22;9.40;;;5.13;;
25962;SDS011;13760;52.588;13.406;2023-04-06T02:13:48;11.88;;;5.60;;
25962;SDS011;13760;52.588;13.406;2023-04-06T02:16:13;12.52;;;5.53;;
25962;SDS011;13760;52.588;13.406;2023-04-06T02:18:40;10.20;;;5.65;;
25962;SDS011;13760;52.588;13.406;2023-04-06T02:21:06;7.63;;;5.13;;
25962;SDS011;13760;52.588;13.406;2023-04-06T02:23:32;8.52;;;5.57;;
25962;SDS011;13760;52.588;13.406;2023-04-06T02:25:57;10.95;;;5.35;;
25962;SDS011;13760;52.588;13.406;2023-04-06T02:28:23;8.63;;;5.30;;
25962;SDS011;13760;52.588;13.406;2023-04-06T02:30:48;12.13;;;6.03;;
25962;SDS011;13760;52.588;13.406;2023-04-06T02:33:14;7.82;;;5.32;;
25962;SDS011;13760;52.588;13.406;2023-04-06T02:35:40;7.97;;;5.28;;
25962;SDS011;13760;52.588;13.406;2023-04-06T02:38:05;10.23;;;5.85;;
25962;SDS011;13760;52.588;13.406;2023-04-06T02:40:31;9.68;;;5.28;;
25962;SDS011;13760;52.588;13.406;2023-04-06T02:42:56;9.68;;;5.60;;
25962;SDS011;13760;52.588;13.406;2023-04-06T02:45:22;9.02;;;5.68;;
25962;SDS011;13760;52.588;13.406;2023-04-06T02:47:47;8.32;;;5.40;;
25962;SDS011;13760;52.588;13.406;2023-04-06T02:50:13;13.48;;;5.97;;
25962;SDS011;13760;52.588;13.406;2023-04-06T02:52:39;8.13;;;5.60;;
25962;SDS011;13760;52.588;13.406;2023-04-06T02:55:04;9.15;;;6.40;;
25962;SDS011;13760;52.588;13.406;2023-04-06T02:57:32;9.30;;;5.72;;
25962;SDS011;13760;52.588;13.406;2023-04-06T03:00:07;10.43;;;6.00;;
25962;SDS011;13760;52.588;13.406;2023-04-06T03:02:36;10.13;;;6.22;;
25962;SDS011;13760;52.588;13.406;2023-04-06T03:05:08;10.57;;;5.82;;
25962;SDS011;13760;52.588;13.406;2023-04-06T03:07:41;10.23;;;6.18;;
25962;SDS011;13760;52.588;13.406;2023-04-06T03:10:34;11.88;;;6.00;;
25962;SDS011;13760;52.588;13.406;2023-04-06T03:12:59;8.65;;;5.90;;
25962;SDS011;13760;52.588;13.406;2023-04-06T03:15:25;9.00;;;6.18;;
25962;SDS011;13760;52.588;13.406;2023-04-06T03:17:51;14.00;;;6.85;;
25962;SDS011;13760;52.588;13.406;2023-04-06T03:20:16;14.68;;;7.80;;
25962;SDS011;13760;52.588;13.406;2023-04-06T03:22:42;11.95;;;7.90;;
25962;SDS011;13760;52.588;13.406;2023-04-06T03:25:07;14.57;;;9.18;;
25962;SDS011;13760;52.588;13.406;2023-04-06T03:27:33;18.10;;;8.68;;
25962;SDS011;13760;52.588;13.406;2023-04-06T03:29:58;14.85;;;9.95;;
25962;SDS011;13760;52.588;13.406;2023-04-06T03:32:24;15.85;;;9.75;;
25962;SDS011;13760;52.588;13.406;2023-04-06T03:34:49;18.40;;;9.88;;
25962;SDS011;13760;52.588;13.406;2023-04-06T03:37:15;19.55;;;10.15;;
25962;SDS011;13760;52.588;13.406;2023-04-06T03:39:40;19.13;;;10.00;;
25962;SDS011;13760;52.588;13.406;2023-04-06T03:42:06;20.85;;;10.20;;
25962;SDS011;13760;52.588;13.406;2023-04-06T03:44:31;14.75;;;9.38;;
25962;SDS011;13760;52.588;13.406;2023-04-06T03:46:57;15.10;;;9.68;;
25962;SDS011;13760;52.588;13.406;2023-04-06T03:49:22;17.98;;;9.75;;
25962;SDS011;13760;52.588;13.406;2023-04-06T03:51:49;19.73;;;11.30;;
25962;SDS011;13760;52.588;13.406;2023-04-06T03:54:14;17.05;;;10.77;;
25962;SDS011;13760;52.588;13.406;2023-04-06T03:56:40;18.35;;;10.32;;
25962;SDS011;13760;52.588;13.406;2023-04-06T03:59:05;15.57;;;9.73;;
25962;SDS011;13760;52.588;13.406;2023-04-06T04:01:31;17.30;;;10.10;;
25962;SDS011;13760;52.588;13.406;2023-04-06T04:03:59;13.68;;;9.68;;
25962;SDS011;13760;52.588;13.406;2023-04-06T04:06:25;17.00;;;10.88;;
25962;SDS011;13760;52.588;13.406;2023-04-06T04:08:50;19.88;;;11.18;;
25962;SDS011;13760;52.588;13.406;2023-04-06T04:11:16;17.67;;;10.75;;
25962;SDS011;13760;52.588;13.406;2023-04-06T04:13:42;18.50;;;10.95;;
25962;SDS011;13760;52.588;13.406;2023-04-06T04:16:07;16.48;;;11.52;;
25962;SDS011;13760;52.588;13.406;2023-04-06T04:18:33;17.80;;;11.77;;
25962;SDS011;13760;52.588;13.406;2023-04-06T04:20:58;17.73;;;10.95;;
25962;SDS011;13760;52.588;13.406;2023-04-06T04:23:24;20.33;;;11.32;;
25962;SDS011;13760;52.588;13.406;2023-04-06T04:25:50;21.88;;;11.65;;
25962;SDS011;13760;52.588;13.406;2023-04-06T04:28:16;22.70;;;12.00;;
25962;SDS011;13760;52.588;13.406;2023-04-06T04:30:41;18.85;;;11.65;;
25962;SDS011;13760;52.588;13.406;2023-04-06T04:33:07;20.48;;;12.93;;
25962;SDS011;13760;52.588;13.406;2023-04-06T04:35:32;22.30;;;12.45;;
25962;SDS011;13760;52.588;13.406;2023-04-06T04:37:58;21.20;;;12.82;;
25962;SDS011;13760;52.588;13.406;2023-04-06T04:40:24;22.48;;;13.40;;
25962;SDS011;13760;52.588;13.406;2023-04-06T04:42:50;23.50;;;12.93;;
25962;SDS011;13760;52.588;13.406;2023-04-06T04:45:16;25.35;;;13.88;;
25962;SDS011;13760;52.588;13.406;2023-04-06T04:47:41;21.90;;;12.85;;
25962;SDS011;13760;52.588;13.406;2023-04-06T04:50:07;30.40;;;13.98;;
25962;SDS011;13760;52.588;13.406;2023-04-06T04:52:33;27.60;;;13.82;;
25962;SDS011;13760;52.588;13.406;2023-04-06T04:54:58;30.67;;;15.05;;
25962;SDS011;13760;52.588;13.406;2023-04-06T04:57:24;35.65;;;15.80;;
25962;SDS011;13760;52.588;13.406;2023-04-06T04:59:49;24.67;;;15.20;;
25962;SDS011;13760;52.588;13.406;2023-04-06T05:02:16;31.85;;;15.55;;
25962;SDS011;13760;52.588;13.406;2023-04-06T05:04:41;28.80;;;15.45;;
25962;SDS011;13760;52.588;13.406;2023-04-06T05:07:07;23.60;;;14.73;;
25962;SDS011;13760;52.588;13.406;2023-04-06T05:09:34;25.27;;;15.38;;
25962;SDS011;13760;52.588;13.406;2023-04-06T05:12:00;26.55;;;14.88;;
25962;SDS011;13760;52.588;13.406;2023-04-06T05:14:26;27.65;;;14.73;;
25962;SDS011;13760;52.588;13.406;2023-04-06T05:16:53;29.60;;;15.23;;
25962;SDS011;13760;52.588;13.406;2023-04-06T05:19:18;26.98;;;14.45;;
25962;SDS011;13760;52.588;13.406;2023-04-06T05:21:44;26.85;;;15.50;;
25962;SDS011;13760;52.588;13.406;2023-04-06T05:24:10;28.25;;;14.85;;
25962;SDS011;13760;52.588;13.406;2023-04-06T05:26:36;22.08;;;14.60;;
25962;SDS011;13760;52.588;13.406;2023-04-06T05:29:02;23.13;;;15.05;;
25962;SDS011;13760;52.588;13.406;2023-04-06T05:31:28;29.25;;;15.88;;
25962;SDS011;13760;52.588;13.406;2023-04-06T05:33:54;25.88;;;14.70;;
25962;SDS011;13760;52.588;13.406;2023-04-06T05:36:24;21.98;;;14.20;;
25962;SDS011;13760;52.588;13.406;2023-04-06T05:38:56;31.65;;;15.00;;
25962;SDS011;13760;52.588;13.406;2023-04-06T05:41:24;27.55;;;13.45;;
25962;SDS011;13760;52.588;13.406;2023-04-06T05:43:57;26.65;;;14.27;;
25962;SDS011;13760;52.588;13.406;2023-04-06T05:47:08;21.50;;;12.90;;
25962;SDS011;13760;52.588;13.406;2023-04-06T05:49:34;22.70;;;13.57;;
25962;SDS011;13760;52.588;13.406;2023-04-06T05:52:00;21.15;;;12.75;;
25962;SDS011;13760;52.588;13.406;2023-04-06T05:54:29;22.13;;;12.50;;
25962;SDS011;13760;52.588;13.406;2023-04-06T05:56:55;20.67;;;12.10;;
25962;SDS011;13760;52.588;13.406;2023-04-06T05:59:29;24.60;;;12.88;;
25962;SDS011;13760;52.588;13.406;2023-04-06T06:01:55;20.75;;;12.32;;
25962;SDS011;13760;52.588;13.406;2023-04-06T06:04:23;18.20;;;11.45;;
25962;SDS011;13760;52.588;13.406;2023-04-06T06:10:07;22.80;;;11.93;;
25962;SDS011;13760;52.588;13.406;2023-04-06T06:12:33;21.38;;;12.45;;
25962;SDS011;13760;52.588;13.406;2023-04-06T06:14:59;22.67;;;11.35;;
25962;SDS011;13760;52.588;13.406;2023-04-06T06:17:31;20.73;;;12.43;;
25962;SDS011;13760;52.588;13.406;2023-04-06T06:19:57;18.13;;;11.48;;
25962;SDS011;13760;52.588;13.406;2023-04-06T06:22:34;20.70;;;10.55;;
25962;SDS011;13760;52.588;13.406;2023-04-06T06:25:00;19.30;;;10.93;;
25962;SDS011;13760;52.588;13.406;2023-04-06T06:27:25;16.45;;;10.13;;
25962;SDS011;13760;52.588;13.406;2023-04-06T06:29:53;18.15;;;10.35;;
25962;SDS011;13760;52.588;13.406;2023-04-06T06:32:21;17.83;;;10.57;;
25962;SDS011;13760;52.588;13.406;2023-04-06T06:34:47;17.10;;;10.13;;
25962;SDS011;13760;52.588;13.406;2023-04-06T06:37:13;20.02;;;10.13;;
25962;SDS011;13760;52.588;13.406;2023-04-06T06:39:38;18.23;;;10.23;;
25962;SDS011;13760;52.588;13.406;2023-04-06T06:42:19;15.57;;;9.88;;
25962;SDS011;13760;52.588;13.406;2023-04-06T06:45:23;16.23;;;8.85;;
25962;SDS011;13760;52.588;13.406;2023-04-06T06:47:55;15.07;;;9.45;;
25962;SDS011;13760;52.588;13.406;2023-04-06T06:50:21;13.95;;;8.70;;
25962;SDS011;13760;52.588;13.406;2023-04-06T06:52:46;15.57;;;8.48;;
25962;SDS011;13760;52.588;13.406;2023-04-06T06:55:12;13.85;;;8.80;;
25962;SDS011;13760;52.588;13.406;2023-04-06T06:57:38;14.68;;;8.30;;
25962;SDS011;13760;52.588;13.406;2023-04-06T07:00:04;13.93;;;8.68;;
25962;SDS011;13760;52.588;13.406;2023-04-06T07:02:39;17.10;;;8.75;;
25962;SDS011;13760;52.588;13.406;2023-04-06T07:05:08;14.45;;;8.25;;
25962;SDS011;13760;52.588;13.406;2023-04-06T07:07:37;15.98;;;8.75;;
25962;SDS011;13760;52.588;13.406;2023-04-06T07:10:02;13.30;;;8.32;;
25962;SDS011;13760;52.588;13.406;2023-04-06T07:12:28;12.75;;;7.60;;
25962;SDS011;13760;52.588;13.406;2023-04-06T07:14:54;21.08;;;8.23;;
25962;SDS011;13760;52.588;13.406;2023-04-06T07:17:29;16.90;;;7.90;;
25962;SDS011;13760;52.588;13.406;2023-04-06T07:19:59;14.93;;;7.47;;
25962;SDS011;13760;52.588;13.406;2023-04-06T07:26:16;13.55;;;6.88;;
25962;SDS011;13760;52.588;13.406;2023-04-06T07:28:42;14.73;;;7.45;;
25962;SDS011;13760;52.588;13.406;2023-04-06T07:31:11;10.80;;;7.05;;
25962;SDS011;13760;52.588;13.406;2023-04-06T07:33:37;12.15;;;6.57;;
25962;SDS011;13760;52.588;13.406;2023-04-06T07:36:03;9.90;;;6.20;;
25962;SDS011;13760;52.588;13.406;2023-04-06T07:38:28;10.88;;;6.10;;
25962;SDS011;13760;52.588;13.406;2023-04-06T07:40:54;11.20;;;6.32;;
25962;SDS011;13760;52.588;13.406;2023-04-06T07:43:31;13.45;;;6.65;;
25962;SDS011;13760;52.588;13.406;2023-04-06T07:46:04;10.65;;;5.68;;
25962;SDS011;13760;52.588;13.406;2023-04-06T07:48:29;13.98;;;6.50;;
25962;SDS011;13760;52.588;13.406;2023-04-06T07:51:02;10.15;;;5.93;;
25962;SDS011;13760;52.588;13.406;2023-04-06T07:53:28;10.75;;;5.38;;
25962;SDS011;13760;52.588;13.406;2023-04-06T07:55:55;10.93;;;5.22;;
25962;SDS011;13760;52.588;13.406;2023-04-06T07:58:21;10.35;;;5.75;;
25962;SDS011;13760;52.588;13.406;2023-04-06T08:00:47;11.95;;;5.20;;
25962;SDS011;13760;52.588;13.406;2023-04-06T08:03:12;11.38;;;5.35;;
25962;SDS011;13760;52.588;13.406;2023-04-06T08:05:38;11.32;;;5.68;;
25962;SDS011;13760;52.588;13.406;2023-04-06T08:08:03;8.35;;;5.50;;
25962;SDS011;13760;52.588;13.406;2023-04-06T08:10:29;10.02;;;5.18;;
25962;SDS011;13760;52.588;13.406;2023-04-06T08:12:55;9.30;;;4.53;;
25962;SDS011;13760;52.588;13.406;2023-04-06T08:15:20;8.57;;;3.95;;
25962;SDS011;13760;52.588;13.406;2023-04-06T08:17:46;9.23;;;4.50;;
25962;SDS011;13760;52.588;13.406;2023-04-06T08:20:12;8.45;;;4.53;;
25962;SDS011;13760;52.588;13.406;2023-04-06T08:22:37;8.88;;;3.45;;
25962;SDS011;13760;52.588;13.406;2023-04-06T08:25:03;8.38;;;3.58;;
25962;SDS011;13760;52.588;13.406;2023-04-06T08:27:29;10.95;;;3.90;;
25962;SDS011;13760;52.588;13.406;2023-04-06T08:29:55;7.50;;;4.47;;
25962;SDS011;13760;52.588;13.406;2023-04-06T08:32:20;6.22;;;3.70;;
25962;SDS011;13760;52.588;13.406;2023-04-06T08:34:46;9.93;;;4.50;;
25962;SDS011;13760;52.588;13.406;2023-04-06T08:37:12;10.75;;;4.35;;
25962;SDS011;13760;52.588;13.406;2023-04-06T08:39:38;7.18;;;4.15;;
25962;SDS011;13760;52.588;13.406;2023-04-06T08:42:03;9.25;;;4.82;;
25962;SDS011;13760;52.588;13.406;2023-04-06T08:44:31;8.82;;;5.20;;
25962;SDS011;13760;52.588;13.406;2023-04-06T08:46:57;12.05;;;4.60;;
25962;SDS011;13760;52.588;13.406;2023-04-06T08:49:25;8.82;;;4.22;;
25962;SDS011;13760;52.588;13.406;2023-04-06T08:51:51;6.35;;;4.00;;
25962;SDS011;13760;52.588;13.406;2023-04-06T08:54:17;7.55;;;3.15;;
25962;SDS011;13760;52.588;13.406;2023-04-06T08:56:43;5.53;;;2.92;;
25962;SDS011;13760;52.588;13.406;2023-04-06T08:59:08;4.40;;;2.70;;
25962;SDS011;13760;52.588;13.406;2023-04-06T09:01:37;5.82;;;2.75;;
25962;SDS011;13760;52.588;13.406;2023-04-06T09:04:07;6.07;;;3.15;;
25962;SDS011;13760;52.588;13.406;2023-04-06T09:06:36;6.95;;;3.40;;
25962;SDS011;13760;52.588;13.406;2023-04-06T09:09:02;5.85;;;3.28;;
25962;SDS011;13760;52.588;13.406;2023-04-06T09:11:28;8.50;;;3.15;;
25962;SDS011;13760;52.588;13.406;2023-04-06T09:13:54;7.45;;;3.35;;
25962;SDS011;13760;52.588;13.406;2023-04-06T09:16:22;6.38;;;2.63;;
25962;SDS011;13760;52.588;13.406;2023-04-06T09:18:48;5.88;;;3.30;;
25962;SDS011;13760;52.588;13.406;2023-04-06T09:21:18;5.60;;;3.00;;
25962;SDS011;13760;52.588;13.406;2023-04-06T09:23:44;7.72;;;2.88;;
25962;SDS011;13760;52.588;13.406;2023-04-06T09:26:10;5.03;;;2.75;;
25962;SDS011;13760;52.588;13.406;2023-04-06T09:28:44;5.78;;;2.58;;
25962;SDS011;13760;52.588;13.406;2023-04-06T09:31:14;6.28;;;2.92;;
25962;SDS011;13760;52.588;13.406;2023-04-06T09:33:43;5.00;;;2.78;;
25962;SDS011;13760;52.588;13.406;2023-04-06T09:36:10;8.65;;;3.00;;
25962;SDS011;13760;52.588;13.406;2023-04-06T09:38:37;6.22;;;2.28;;
25962;SDS011;13760;52.588;13.406;2023-04-06T09:41:04;6.40;;;2.35;;
25962;SDS011;13760;52.588;13.406;2023-04-06T09:43:30;4.35;;;2.50;;
25962;SDS011;13760;52.588;13.406;2023-04-06T09:45:56;5.53;;;2.63;;
25962;SDS011;13760;52.588;13.406;2023-04-06T09:48:22;4.68;;;2.25;;
25962;SDS011;13760;52.588;13.406;2023-04-06T09:50:51;6.88;;;2.30;;
25962;SDS011;13760;52.588;13.406;2023-04-06T09:53:23;4.90;;;2.75;;
25962;SDS011;13760;52.588;13.406;2023-04-06T09:55:51;6.15;;;2.45;;
25962;SDS011;13760;52.588;13.406;2023-04-06T09:58:22;5.03;;;2.17;;
25962;SDS011;13760;52.588;13.406;2023-04-06T10:01:01;4.18;;;2.60;;
25962;SDS011;13760;52.588;13.406;2023-04-06T10:06:15;8.32;;;2.78;;
25962;SDS011;13760;52.588;13.406;2023-04-06T10:08:46;7.70;;;2.50;;
25962;SDS011;13760;52.588;13.406;2023-04-06T10:11:15;5.63;;;2.75;;
25962;SDS011;13760;52.588;13.406;2023-04-06T10:13:41;5.43;;;2.53;;
25962;SDS011;13760;52.588;13.406;2023-04-06T10:16:07;5.28;;;2.63;;
25962;SDS011;13760;52.588;13.406;2023-04-06T10:18:36;6.43;;;2.70;;
25962;SDS011;13760;52.588;13.406;2023-04-06T10:21:14;6.05;;;2.53;;
25962;SDS011;13760;52.588;13.406;2023-04-06T10:24:10;5.03;;;2.53;;
25962;SDS011;13760;52.588;13.406;2023-04-06T10:26:38;4.63;;;2.30;;
25962;SDS011;13760;52.588;13.406;2023-04-06T10:29:04;3.50;;;2.20;;
25962;SDS011;13760;52.588;13.406;2023-04-06T10:31:30;4.80;;;2.13;;
25962;SDS011;13760;52.588;13.406;2023-04-06T10:34:00;3.63;;;2.03;;
25962;SDS011;13760;52.588;13.406;2023-04-06T10:36:53;4.20;;;1.75;;
25962;SDS011;13760;52.588;13.406;2023-04-06T10:39:34;5.93;;;2.25;;
25962;SDS011;13760;52.588;13.406;2023-04-06T10:42:23;3.88;;;2.25;;
25962;SDS011;13760;52.588;13.406;2023-04-06T10:44:50;3.20;;;1.90;;
25962;SDS011;13760;52.588;13.406;2023-04-06T10:47:16;2.70;;;2.08;;
25962;SDS011;13760;52.588;13.406;2023-04-06T10:49:45;3.83;;;2.50;;
25962;SDS011;13760;52.588;13.406;2023-04-06T10:52:10;4.97;;;2.30;;
25962;SDS011;13760;52.588;13.406;2023-04-06T10:54:40;6.40;;;2.58;;
25962;SDS011;13760;52.588;13.406;2023-04-06T10:59:34;4.07;;;2.15;;
25962;SDS011;13760;52.588;13.406;2023-04-06T11:02:03;5.83;;;2.50;;
25962;SDS011;13760;52.588;13.406;2023-04-06T11:04:30;3.97;;;2.20;;
25962;SDS011;13760;52.588;13.406;2023-04-06T11:06:59;3.13;;;1.90;;
25962;SDS011;13760;52.588;13.406;2023-04-06T11:12:27;3.10;;;2.22;;
25962;SDS011;13760;52.588;13.406;2023-04-06T11:21:43;3.45;;;2.10;;
25962;SDS011;13760;52.588;13.406;2023-04-06T11:24:14;5.13;;;2.45;;
25962;SDS011;13760;52.588;13.406;2023-04-06T11:29:14;4.43;;;2.35;;
25962;SDS011;13760;52.588;13.406;2023-04-06T11:31:42;3.30;;;1.85;;
25962;SDS011;13760;52.588;13.406;2023-04-06T11:34:32;4.40;;;1.77;;
25962;SDS011;13760;52.588;13.406;2023-04-06T11:37:02;4.55;;;2.17;;
25962;SDS011;13760;52.588;13.406;2023-04-06T11:39:32;6.88;;;2.17;;
25962;SDS011;13760;52.588;13.406;2023-04-06T11:42:03;2.22;;;1.80;;
25962;SDS011;13760;52.588;13.406;2023-04-06T11:44:40;4.03;;;2.22;;
25962;SDS011;13760;52.588;13.406;2023-04-06T11:53:51;4.97;;;2.10;;
25962;SDS011;13760;52.588;13.406;2023-04-06T11:56:30;3.13;;;1.92;;
25962;SDS011;13760;52.588;13.406;2023-04-06T12:02:49;3.50;;;2.30;;
25962;SDS011;13760;52.588;13.406;2023-04-06T12:05:15;3.75;;;2.30;;
25962;SDS011;13760;52.588;13.406;2023-04-06T12:07:40;5.55;;;2.15;;
25962;SDS011;13760;52.588;13.406;2023-04-06T12:10:08;8.45;;;2.45;;
25962;SDS011;13760;52.588;13.406;2023-04-06T12:12:34;4.03;;;2.05;;
25962;SDS011;13760;52.588;13.406;2023-04-06T12:17:39;5.10;;;1.95;;
25962;SDS011;13760;52.588;13.406;2023-04-06T12:20:04;3.58;;;2.45;;
25962;SDS011;13760;52.588;13.406;2023-04-06T12:22:30;4.03;;;2.30;;
25962;SDS011;13760;52.588;13.406;2023-04-06T12:24:56;5.15;;;2.08;;
25962;SDS011;13760;52.588;13.406;2023-04-06T12:27:22;4.88;;;2.22;;
25962;SDS011;13760;52.588;13.406;2023-04-06T12:29:47;3.35;;;2.17;;
25962;SDS011;13760;52.588;13.406;2023-04-06T12:32:13;5.40;;;2.13;;
25962;SDS011;13760;52.588;13.406;2023-04-06T12:34:38;4.32;;;2.22;;
25962;SDS011;13760;52.588;13.406;2023-04-06T12:37:04;3.58;;;2.25;;
25962;SDS011;13760;52.588;13.406;2023-04-06T12:39:29;2.63;;;2.10;;
25962;SDS011;13760;52.588;13.406;2023-04-06T12:41:55;4.28;;;2.22;;
25962;SDS011;13760;52.588;13.406;2023-04-06T12:44:22;4.05;;;2.17;;
25962;SDS011;13760;52.588;13.406;2023-04-06T12:46:47;4.50;;;1.98;;
25962;SDS011;13760;52.588;13.406;2023-04-06T12:49:13;4.25;;;2.35;;
25962;SDS011;13760;52.588;13.406;2023-04-06T12:51:45;4.38;;;2.30;;
25962;SDS011;13760;52.588;13.406;2023-04-06T12:54:10;5.50;;;2.15;;
25962;SDS011;13760;52.588;13.406;2023-04-06T12:56:36;3.17;;;2.20;;
25962;SDS011;13760;52.588;13.406;2023-04-06T12:59:02;4.25;;;2.15;;
25962;SDS011;13760;52.588;13.406;2023-04-06T13:01:28;2.88;;;2.20;;
25962;SDS011;13760;52.588;13.406;2023-04-06T13:03:54;4.05;;;2.15;;
25962;SDS011;13760;52.588;13.406;2023-04-06T13:06:20;3.90;;;2.47;;
25962;SDS011;13760;52.588;13.406;2023-04-06T13:08:46;7.60;;;2.35;;
25962;SDS011;13760;52.588;13.406;2023-04-06T13:11:14;3.25;;;2.10;;
25962;SDS011;13760;52.588;13.406;2023-04-06T13:13:40;4.05;;;2.13;;
25962;SDS011;13760;52.588;13.406;2023-04-06T13:16:09;5.60;;;2.58;;
25962;SDS011;13760;52.588;13.406;2023-04-06T13:18:35;4.63;;;2.40;;
25962;SDS011;13760;52.588;13.406;2023-04-06T13:21:03;5.05;;;2.30;;
25962;SDS011;13760;52.588;13.406;2023-04-06T13:23:32;3.45;;;2.28;;
25962;SDS011;13760;52.588;13.406;2023-04-06T13:25:59;3.50;;;2.10;;
25962;SDS011;13760;52.588;13.406;2023-04-06T13:28:26;4.68;;;2.50;;
25962;SDS011;13760;52.588;13.406;2023-04-06T13:30:52;3.95;;;2.13;;
25962;SDS011;13760;52.588;13.406;2023-04-06T13:33:18;3.13;;;2.42;;
25962;SDS011;13760;52.588;13.406;2023-04-06T13:35:44;5.63;;;2.30;;
25962;SDS011;13760;52.588;13.406;2023-04-06T13:38:10;4.78;;;2.63;;
25962;SDS011;13760;52.588;13.406;2023-04-06T13:40:38;4.55;;;2.17;;
25962;SDS011;13760;52.588;13.406;2023-04-06T13:43:05;5.88;;;2.50;;
25962;SDS011;13760;52.588;13.406;2023-04-06T13:45:30;3.13;;;2.00;;
25962;SDS011;13760;52.588;13.406;2023-04-06T13:47:56;4.68;;;2.40;;
25962;SDS011;13760;52.588;13.406;2023-04-06T13:50:22;4.00;;;2.50;;
25962;SDS011;13760;52.588;13.406;2023-04-06T13:53:02;5.07;;;2.60;;
25962;SDS011;13760;52.588;13.406;2023-04-06T13:55:27;3.33;;;2.45;;
25962;SDS011;13760;52.588;13.406;2023-04-06T13:57:53;5.05;;;1.88;;
25962;SDS011;13760;52.588;13.406;2023-04-06T14:00:20;3.10;;;2.05;;
25962;SDS011;13760;52.588;13.406;2023-04-06T14:02:45;3.28;;;2.22;;
25962;SDS011;13760;52.588;13.406;2023-04-06T14:05:11;4.60;;;2.50;;
25962;SDS011;13760;52.588;13.406;2023-04-06T14:07:37;4.38;;;2.70;;
25962;SDS011;13760;52.588;13.406;2023-04-06T14:10:02;3.08;;;2.40;;
25962;SDS011;13760;52.588;13.406;2023-04-06T14:12:28;4.80;;;2.30;;
25962;SDS011;13760;52.588;13.406;2023-04-06T14:14:54;4.63;;;2.90;;
25962;SDS011;13760;52.588;13.406;2023-04-06T14:17:20;5.72;;;2.42;;
25962;SDS011;13760;52.588;13.406;2023-04-06T14:19:46;3.53;;;2.40;;
25962;SDS011;13760;52.588;13.406;2023-04-06T14:22:12;3.30;;;2.30;;
25962;SDS011;13760;52.588;13.406;2023-04-06T14:24:38;4.38;;;2.40;;
25962;SDS011;13760;52.588;13.406;2023-04-06T14:27:03;4.50;;;2.53;;
25962;SDS011;13760;52.588;13.406;2023-04-06T14:29:29;6.15;;;2.42;;
25962;SDS011;13760;52.588;13.406;2023-04-06T14:31:55;4.85;;;2.72;;
25962;SDS011;13760;52.588;13.406;2023-04-06T14:34:28;4.45;;;2.58;;
25962;SDS011;13760;52.588;13.406;2023-04-06T14:36:53;10.75;;;2.80;;
25962;SDS011;13760;52.588;13.406;2023-04-06T14:39:20;3.55;;;2.33;;
25962;SDS011;13760;52.588;13.406;2023-04-06T14:41:46;4.53;;;2.55;;
25962;SDS011;13760;52.588;13.406;2023-04-06T14:44:15;5.90;;;2.88;;
25962;SDS011;13760;52.588;13.406;2023-04-06T14:46:41;5.00;;;2.47;;
25962;SDS011;13760;52.588;13.406;2023-04-06T14:49:07;3.40;;;2.13;;
25962;SDS011;13760;52.588;13.406;2023-04-06T14:51:33;3.45;;;2.28;;
25962;SDS011;13760;52.588;13.406;2023-04-06T14:54:00;5.05;;;2.63;;
25962;SDS011;13760;52.588;13.406;2023-04-06T14:56:28;3.72;;;2.53;;
25962;SDS011;13760;52.588;13.406;2023-04-06T14:58:56;6.68;;;2.40;;
25962;SDS011;13760;52.588;13.406;2023-04-06T15:01:33;7.85;;;2.40;;
25962;SDS011;13760;52.588;13.406;2023-04-06T15:04:03;5.25;;;2.50;;